createdAt,value
2022-12-17T00:01:52.184Z,17.20
2022-12-17T00:04:38.292Z,17.73
2022-12-17T00:07:24.071Z,17.27
2022-12-17T00:10:21.131Z,22.27
2022-12-17T00:13:07.357Z,18.90
2022-12-17T00:15:55.209Z,16.30
2022-12-17T00:18:41.951Z,17.80
2022-12-17T00:21:29.176Z,15.07
2022-12-17T00:24:15.127Z,16.73
2022-12-17T00:27:01.004Z,18.93
2022-12-17T00:29:46.738Z,17.53
2022-12-17T00:32:34.101Z,19.63
2022-12-17T00:35:19.729Z,18.67
2022-12-17T00:38:05.720Z,16.83
2022-12-17T00:40:51.653Z,17.93
2022-12-17T00:43:38.198Z,21.93
2022-12-17T00:46:24.476Z,18.57
2022-12-17T00:49:11.808Z,17.67
2022-12-17T00:51:57.623Z,19.17
2022-12-17T00:54:43.320Z,14.73
2022-12-17T00:57:28.824Z,20.07
2022-12-17T01:00:14.505Z,19.57
2022-12-17T01:03:00.368Z,20.53
2022-12-17T01:05:47.604Z,19.33
2022-12-17T01:08:34.145Z,19.17
2022-12-17T01:11:20.583Z,20.90
2022-12-17T01:14:07.030Z,16.37
2022-12-17T01:16:53.199Z,19.97
2022-12-17T01:19:42.156Z,18.30
2022-12-17T01:22:29.397Z,18.20
2022-12-17T01:25:15.416Z,22.80
2022-12-17T01:28:01.206Z,19.20
2022-12-17T01:30:47.015Z,18.60
2022-12-17T01:33:33.148Z,19.33
2022-12-17T01:36:19.013Z,18.00
2022-12-17T01:39:05.900Z,19.07
2022-12-17T01:41:51.711Z,19.80
2022-12-17T01:45:13.526Z,21.37
2022-12-17T01:48:06.228Z,24.50
2022-12-17T01:50:55.909Z,19.50
2022-12-17T01:53:47.771Z,21.87
2022-12-17T01:56:35.755Z,15.70
2022-12-17T01:59:22.981Z,19.90
2022-12-17T02:02:08.931Z,19.63
2022-12-17T02:04:54.988Z,19.77
2022-12-17T02:08:08.325Z,18.20
2022-12-17T02:11:03.909Z,20.40
2022-12-17T02:13:55.921Z,19.00
2022-12-17T02:16:57.350Z,18.13
2022-12-17T02:19:59.912Z,21.20
2022-12-17T02:23:00.594Z,19.27
2022-12-17T02:26:04.579Z,19.20
2022-12-17T02:28:53.747Z,18.27
2022-12-17T02:31:41.106Z,18.33
2022-12-17T02:34:26.791Z,18.23
2022-12-17T02:37:12.669Z,16.10
2022-12-17T02:39:58.872Z,21.10
2022-12-17T02:42:41.853Z,17.00
2022-12-17T02:45:29.434Z,16.50
2022-12-17T02:48:16.643Z,15.80
2022-12-17T02:51:02.510Z,15.33
2022-12-17T02:53:50.899Z,17.80
2022-12-17T02:56:36.802Z,17.40
2022-12-17T02:59:24.756Z,16.23
2022-12-17T03:02:12.373Z,17.10
2022-12-17T03:05:06.632Z,18.73
2022-12-17T03:08:04.016Z,16.50
2022-12-17T03:10:50.211Z,18.33
2022-12-17T03:13:42.480Z,18.13
2022-12-17T03:16:35.764Z,19.07
2022-12-17T03:19:24.812Z,16.50
2022-12-17T03:22:10.753Z,17.30
2022-12-17T03:24:56.688Z,17.83
2022-12-17T03:27:43.283Z,15.63
2022-12-17T03:30:35.526Z,15.40
2022-12-17T03:33:22.444Z,14.10
2022-12-17T03:36:23.745Z,14.23
2022-12-17T03:39:09.579Z,15.73
2022-12-17T03:41:55.191Z,18.10
2022-12-17T03:44:41.062Z,18.17
2022-12-17T03:47:26.870Z,17.80
2022-12-17T03:50:12.838Z,15.50
2022-12-17T03:53:00.039Z,14.40
2022-12-17T03:55:45.751Z,14.60
2022-12-17T03:58:31.747Z,15.27
2022-12-17T04:01:17.345Z,18.87
2022-12-17T04:04:03.173Z,17.43
2022-12-17T04:06:48.711Z,16.23
2022-12-17T04:09:35.710Z,15.97
2022-12-17T04:12:21.560Z,15.00
2022-12-17T04:15:07.108Z,15.67
2022-12-17T04:17:52.763Z,17.83
2022-12-17T04:20:38.715Z,17.87
2022-12-17T04:23:24.416Z,17.00
2022-12-17T04:26:08.141Z,15.83
2022-12-17T04:28:53.640Z,17.67
2022-12-17T04:31:39.601Z,15.57
2022-12-17T04:34:25.498Z,15.63
2022-12-17T04:37:11.255Z,16.80
2022-12-17T04:39:57.240Z,18.67
2022-12-17T04:42:40.862Z,19.63
2022-12-17T04:45:24.347Z,16.67
2022-12-17T04:48:10.520Z,13.77
2022-12-17T04:50:56.269Z,17.00
2022-12-17T04:53:42.198Z,17.90
2022-12-17T04:56:27.962Z,18.20
2022-12-17T04:59:15.079Z,15.17
2022-12-17T05:02:01.051Z,17.10
2022-12-17T05:04:46.836Z,13.57
2022-12-17T05:07:32.588Z,18.90
2022-12-17T05:10:18.391Z,15.40
2022-12-17T05:13:04.392Z,16.93
2022-12-17T05:15:53.480Z,18.80
2022-12-17T05:18:39.494Z,16.63
2022-12-17T05:21:28.091Z,18.03
2022-12-17T05:24:17.773Z,19.17
2022-12-17T05:27:03.938Z,16.80
2022-12-17T05:29:49.627Z,18.00
2022-12-17T05:32:36.554Z,17.00
2022-12-17T05:35:22.487Z,15.90
2022-12-17T05:38:16.635Z,15.50
2022-12-17T05:41:02.122Z,16.83
2022-12-17T05:43:47.980Z,15.17
2022-12-17T05:46:33.609Z,15.87
2022-12-17T05:49:20.764Z,14.27
2022-12-17T05:52:06.399Z,15.10
2022-12-17T05:54:52.136Z,16.47
2022-12-17T05:57:38.064Z,16.07
2022-12-17T06:00:26.101Z,15.17
2022-12-17T06:03:17.822Z,14.40
2022-12-17T06:06:05.988Z,17.10
2022-12-17T06:08:52.051Z,15.63
2022-12-17T06:11:37.791Z,15.37
2022-12-17T06:14:23.362Z,15.63
2022-12-17T06:17:09.235Z,15.83
2022-12-17T06:19:55.139Z,18.13
2022-12-17T06:22:42.330Z,14.77
2022-12-17T06:25:28.445Z,18.00
2022-12-17T06:28:18.204Z,18.53
2022-12-17T06:31:09.811Z,17.50
2022-12-17T06:33:56.529Z,17.47
2022-12-17T06:36:42.943Z,19.33
2022-12-17T06:39:30.265Z,15.13
2022-12-17T06:42:16.096Z,14.33
2022-12-17T06:45:02.045Z,16.57
2022-12-17T06:47:47.960Z,15.03
2022-12-17T06:50:33.723Z,15.67
2022-12-17T06:53:21.189Z,16.97
2022-12-17T06:56:08.651Z,15.93
2022-12-17T06:58:54.679Z,21.17
2022-12-17T07:01:41.109Z,17.90
2022-12-17T07:04:27.308Z,17.93
2022-12-17T07:07:13.125Z,16.07
2022-12-17T07:09:59.250Z,16.30
2022-12-17T07:12:46.346Z,16.53
2022-12-17T07:15:32.527Z,16.37
2022-12-17T07:18:20.228Z,14.03
2022-12-17T07:21:07.614Z,18.60
2022-12-17T07:23:53.432Z,17.73
2022-12-17T07:26:39.368Z,18.47
2022-12-17T07:29:38.213Z,15.57
2022-12-17T07:32:24.357Z,18.47
2022-12-17T07:35:09.976Z,16.57
2022-12-17T07:37:55.880Z,16.40
2022-12-17T07:40:41.847Z,20.77
2022-12-17T07:43:31.399Z,16.70
2022-12-17T07:46:18.402Z,18.17
2022-12-17T07:49:04.596Z,17.33
2022-12-17T07:51:50.392Z,16.90
2022-12-17T07:54:36.227Z,15.83
2022-12-17T07:57:22.126Z,15.83
2022-12-17T08:00:07.877Z,16.53
2022-12-17T08:02:54.952Z,17.10
2022-12-17T08:05:41.221Z,15.73
2022-12-17T08:08:27.882Z,19.50
2022-12-17T08:11:13.769Z,15.80
2022-12-17T08:13:59.392Z,20.23
2022-12-17T08:16:45.374Z,15.77
2022-12-17T08:19:32.577Z,15.97
2022-12-17T08:22:18.280Z,19.13
2022-12-17T08:25:04.004Z,17.50
2022-12-17T08:27:50.147Z,15.30
2022-12-17T08:30:36.120Z,15.73
2022-12-17T08:33:23.193Z,17.17
2022-12-17T08:36:15.786Z,16.67
2022-12-17T08:39:04.468Z,16.40
2022-12-17T08:41:54.814Z,18.43
2022-12-17T08:44:41.671Z,17.93
2022-12-17T08:47:27.536Z,21.10
2022-12-17T08:50:13.370Z,16.23
2022-12-17T08:53:00.547Z,18.50
2022-12-17T08:55:46.473Z,18.60
2022-12-17T08:58:32.816Z,17.20
2022-12-17T09:01:25.205Z,18.60
2022-12-17T09:04:10.912Z,16.27
2022-12-17T09:06:56.737Z,18.57
2022-12-17T09:09:43.935Z,16.20
2022-12-17T09:12:30.123Z,17.13
2022-12-17T09:15:16.141Z,18.63
2022-12-17T09:18:02.098Z,18.57
2022-12-17T09:21:02.401Z,16.63
2022-12-17T09:23:48.545Z,19.40
2022-12-17T09:26:35.762Z,14.97
2022-12-17T09:29:21.331Z,19.30
2022-12-17T09:32:07.253Z,18.90
2022-12-17T09:34:55.091Z,17.90
2022-12-17T09:37:40.765Z,17.63
2022-12-17T09:40:34.596Z,16.17
2022-12-17T09:43:35.244Z,15.60
2022-12-17T09:46:28.489Z,17.77
2022-12-17T09:49:22.177Z,15.20
2022-12-17T09:52:07.918Z,20.23
2022-12-17T09:55:01.725Z,16.50
2022-12-17T09:57:51.680Z,16.50
2022-12-17T10:00:42.209Z,15.50
2022-12-17T10:03:32.894Z,16.87
2022-12-17T10:06:26.413Z,18.53
2022-12-17T10:09:17.429Z,18.07
2022-12-17T10:12:03.644Z,18.80
2022-12-17T10:14:50.390Z,17.07
2022-12-17T10:17:43.172Z,15.07
2022-12-17T10:20:42.961Z,17.97
2022-12-17T10:23:28.880Z,16.77
2022-12-17T10:26:16.470Z,17.57
2022-12-17T10:29:02.230Z,14.97
2022-12-17T10:31:50.076Z,17.57
2022-12-17T10:34:39.422Z,14.80
2022-12-17T10:37:37.136Z,16.83
2022-12-17T10:40:44.399Z,16.73
2022-12-17T10:43:48.620Z,16.63
2022-12-17T10:46:45.328Z,16.00
2022-12-17T10:49:35.060Z,16.90
2022-12-17T10:52:35.033Z,16.90
2022-12-17T10:55:24.443Z,17.60
2022-12-17T10:58:11.127Z,16.07
2022-12-17T11:00:59.017Z,19.83
2022-12-17T11:03:51.181Z,16.93
2022-12-17T11:06:46.056Z,17.10
2022-12-17T11:09:50.607Z,14.80
2022-12-17T11:12:40.012Z,17.87
2022-12-17T11:15:39.122Z,18.83
2022-12-17T11:18:27.721Z,20.00
2022-12-17T11:21:22.723Z,16.30
2022-12-17T11:24:10.527Z,16.73
2022-12-17T11:27:00.303Z,15.50
2022-12-17T11:29:46.680Z,18.33
2022-12-17T11:33:11.610Z,15.80
2022-12-17T11:36:11.824Z,15.17
2022-12-17T11:39:00.826Z,15.40
2022-12-17T11:42:08.029Z,15.63
2022-12-17T11:45:11.198Z,16.13
2022-12-17T11:48:06.635Z,13.73
2022-12-17T11:51:03.028Z,17.77
2022-12-17T11:54:13.919Z,17.27
2022-12-17T11:57:04.155Z,18.03
2022-12-17T11:59:58.173Z,16.13
2022-12-17T12:03:10.426Z,15.37
2022-12-17T12:06:07.094Z,17.47
2022-12-17T12:08:59.509Z,14.70
2022-12-17T12:11:56.793Z,14.43
2022-12-17T12:14:57.841Z,14.83
2022-12-17T12:17:59.390Z,16.53
2022-12-17T12:21:04.776Z,14.40
2022-12-17T12:24:07.393Z,14.97
2022-12-17T12:27:01.239Z,14.63
2022-12-17T12:29:59.633Z,15.80
2022-12-17T12:32:53.563Z,15.33
2022-12-17T12:35:45.215Z,14.20
2022-12-17T12:38:45.707Z,14.80
2022-12-17T12:41:39.790Z,16.73
2022-12-17T12:44:49.536Z,14.80
2022-12-17T12:47:46.468Z,13.38
2022-12-17T12:50:40.791Z,19.13
2022-12-17T12:53:31.145Z,14.03
2022-12-17T12:56:17.063Z,14.13
2022-12-17T12:59:03.057Z,16.70
2022-12-17T13:01:54.373Z,16.07
2022-12-17T13:04:53.369Z,14.60
2022-12-17T13:07:27.875Z,15.57
2022-12-17T13:09:58.631Z,13.53
2022-12-17T13:12:36.140Z,13.67
2022-12-17T13:15:26.026Z,13.67
2022-12-17T13:18:16.298Z,14.87
2022-12-17T13:20:57.378Z,13.83
2022-12-17T13:23:35.948Z,14.17
2022-12-17T13:26:25.641Z,12.90
2022-12-17T13:29:14.363Z,12.97
2022-12-17T13:31:56.597Z,15.10
2022-12-17T13:34:35.122Z,14.10
2022-12-17T13:37:16.350Z,15.50
2022-12-17T13:40:01.533Z,13.20
2022-12-17T13:42:32.318Z,16.50
2022-12-17T13:45:01.820Z,13.73
2022-12-17T13:47:33.506Z,14.00
2022-12-17T13:50:32.901Z,12.67
2022-12-17T13:52:54.802Z,17.17
2022-12-17T13:55:26.710Z,14.23
2022-12-17T13:57:56.764Z,14.27
2022-12-17T14:00:28.879Z,13.60
2022-12-17T14:02:57.659Z,15.23
2022-12-17T14:05:30.657Z,16.20
2022-12-17T14:08:04.169Z,16.93
2022-12-17T14:10:33.485Z,16.83
2022-12-17T14:13:06.934Z,13.53
2022-12-17T14:15:35.776Z,14.40
2022-12-17T14:18:05.301Z,15.83
2022-12-17T14:20:36.908Z,15.13
2022-12-17T14:23:13.619Z,16.50
2022-12-17T14:25:45.363Z,17.37
2022-12-17T14:28:25.506Z,16.20
2022-12-17T14:34:07.494Z,16.03
2022-12-17T14:36:38.858Z,14.20
2022-12-17T14:39:19.326Z,16.90
2022-12-17T14:42:05.568Z,13.70
2022-12-17T14:44:34.201Z,14.37
2022-12-17T14:47:15.050Z,14.47
2022-12-17T14:49:59.711Z,16.63
2022-12-17T14:52:38.904Z,14.40
2022-12-17T14:55:33.244Z,17.10
2022-12-17T14:58:19.067Z,15.73
2022-12-17T15:00:51.610Z,16.00
2022-12-17T15:03:24.098Z,14.50
2022-12-17T15:05:58.910Z,15.50
2022-12-17T15:08:30.677Z,14.00
2022-12-17T15:11:00.552Z,14.27
2022-12-17T15:13:29.319Z,15.80
2022-12-17T15:15:58.087Z,15.67
2022-12-17T15:18:26.877Z,15.70
2022-12-17T15:20:55.884Z,15.17
2022-12-17T15:23:25.954Z,14.50
2022-12-17T15:25:56.227Z,14.77
2022-12-17T15:28:27.700Z,14.90
2022-12-17T15:30:56.230Z,16.17
2022-12-17T15:33:24.662Z,15.90
2022-12-17T15:35:53.314Z,16.47
2022-12-17T15:38:21.922Z,16.00
2022-12-17T15:40:53.188Z,16.93
2022-12-17T15:43:20.581Z,16.03
2022-12-17T15:45:53.583Z,15.00
2022-12-17T15:48:24.105Z,16.90
2022-12-17T15:50:52.631Z,13.57
2022-12-17T15:53:21.155Z,14.23
2022-12-17T15:55:49.613Z,15.63
2022-12-17T15:58:19.188Z,16.17
2022-12-17T16:00:49.103Z,11.93
2022-12-17T16:03:17.625Z,13.53
2022-12-17T16:05:46.406Z,13.17
2022-12-17T16:08:15.029Z,13.80
2022-12-17T16:10:44.021Z,13.33
2022-12-17T16:13:12.826Z,12.10
2022-12-17T16:15:41.621Z,11.27
2022-12-17T16:18:11.745Z,11.17
2022-12-17T16:20:40.427Z,11.67
2022-12-17T16:23:09.081Z,12.37
2022-12-17T16:25:37.757Z,12.13
2022-12-17T16:28:07.327Z,11.80
2022-12-17T16:30:37.143Z,11.17
2022-12-17T16:33:07.498Z,10.20
2022-12-17T16:35:38.738Z,10.37
2022-12-17T16:38:07.832Z,10.20
2022-12-17T16:40:37.121Z,9.93
2022-12-17T16:43:06.362Z,10.23
2022-12-17T16:45:35.188Z,8.70
2022-12-17T16:48:04.782Z,10.20
2022-12-17T16:50:34.796Z,8.17
2022-12-17T16:53:05.386Z,9.93
2022-12-17T16:55:35.176Z,10.97
2022-12-17T16:58:05.046Z,9.67
2022-12-17T17:00:34.309Z,8.73
2022-12-17T17:03:03.095Z,8.00
2022-12-17T17:05:34.272Z,8.17
2022-12-17T17:08:05.254Z,10.23
2022-12-17T17:10:36.763Z,8.93
2022-12-17T17:13:05.670Z,8.63
2022-12-17T17:15:34.053Z,9.10
2022-12-17T17:18:02.661Z,10.37
2022-12-17T17:20:32.513Z,9.70
2022-12-17T17:23:01.247Z,11.57
2022-12-17T17:25:54.150Z,8.70
2022-12-17T17:28:19.739Z,9.13
2022-12-17T17:30:48.204Z,8.83
2022-12-17T17:33:16.719Z,8.47
2022-12-17T17:35:45.089Z,7.87
2022-12-17T17:38:13.522Z,6.97
2022-12-17T17:40:43.308Z,10.63
2022-12-17T17:43:12.818Z,8.43
2022-12-17T17:45:43.132Z,9.70
2022-12-17T17:48:11.662Z,8.83
2022-12-17T17:50:40.604Z,7.53
2022-12-17T17:53:09.413Z,8.67
2022-12-17T17:55:37.988Z,9.50
2022-12-17T17:58:07.732Z,9.67
2022-12-17T18:00:36.164Z,12.17
2022-12-17T18:03:05.103Z,10.30
2022-12-17T18:05:41.738Z,7.63
2022-12-17T18:08:11.218Z,8.63
2022-12-17T18:10:39.815Z,9.30
2022-12-17T18:13:28.265Z,8.53
2022-12-17T18:16:02.864Z,9.17
2022-12-17T18:18:31.361Z,7.37
2022-12-17T18:21:06.466Z,9.53
2022-12-17T18:23:35.373Z,7.93
2022-12-17T18:26:12.768Z,7.53
2022-12-17T18:28:43.685Z,10.70
2022-12-17T18:31:15.255Z,7.80
2022-12-17T18:33:47.015Z,9.33
2022-12-17T18:36:18.235Z,8.13
2022-12-17T18:38:47.588Z,7.73
2022-12-17T18:41:37.181Z,9.43
2022-12-17T18:44:08.275Z,7.83
2022-12-17T18:46:36.973Z,7.93
2022-12-17T18:49:08.634Z,7.67
2022-12-17T18:51:40.141Z,6.97
2022-12-17T18:54:13.489Z,9.87
2022-12-17T18:57:02.511Z,11.03
2022-12-17T18:59:32.703Z,8.80
2022-12-17T19:02:01.832Z,9.20
2022-12-17T19:04:30.560Z,11.57
2022-12-17T19:07:00.035Z,9.60
2022-12-17T19:09:34.767Z,9.17
2022-12-17T19:12:04.390Z,8.37
2022-12-17T19:14:35.068Z,9.63
2022-12-17T19:17:04.098Z,8.07
2022-12-17T19:19:33.399Z,8.30
2022-12-17T19:22:02.203Z,8.83
2022-12-17T19:24:31.264Z,10.90
2022-12-17T19:27:00.260Z,9.03
2022-12-17T19:29:29.114Z,9.10
2022-12-17T19:31:58.949Z,9.07
2022-12-17T19:34:27.911Z,10.90
2022-12-17T19:36:56.529Z,7.07
2022-12-17T19:39:25.218Z,6.93
2022-12-17T19:41:54.228Z,7.47
2022-12-17T19:44:24.006Z,7.90
2022-12-17T19:46:54.473Z,7.00
2022-12-17T19:49:24.498Z,8.00
2022-12-17T19:51:53.240Z,5.47
2022-12-17T19:54:23.312Z,5.33
2022-12-17T19:56:52.186Z,7.00
2022-12-17T19:59:20.859Z,6.87
2022-12-17T20:01:49.670Z,6.30
2022-12-17T20:04:18.751Z,6.40
2022-12-17T20:06:49.363Z,5.37
2022-12-17T20:09:18.939Z,5.80
2022-12-17T20:11:47.651Z,5.83
2022-12-17T20:14:18.947Z,8.97
2022-12-17T20:16:50.174Z,7.37
2022-12-17T20:19:22.196Z,6.33
2022-12-17T20:21:54.241Z,5.67
2022-12-17T20:24:30.316Z,6.03
2022-12-17T20:27:01.052Z,5.67
2022-12-17T20:29:30.181Z,7.37
2022-12-17T20:31:59.347Z,5.87
2022-12-17T20:34:28.247Z,5.57
2022-12-17T20:36:58.331Z,5.97
2022-12-17T20:39:28.210Z,5.80
2022-12-17T20:41:58.144Z,6.20
2022-12-17T20:44:26.902Z,7.57
2022-12-17T20:46:56.786Z,5.03
2022-12-17T20:49:25.991Z,5.43
2022-12-17T20:51:54.505Z,4.93
2022-12-17T20:54:26.122Z,4.87
2022-12-17T20:56:54.932Z,5.40
2022-12-17T20:59:23.456Z,5.97
2022-12-17T21:01:56.055Z,5.60
2022-12-17T21:04:25.780Z,5.63
2022-12-17T21:06:55.109Z,4.13
2022-12-17T21:09:26.270Z,4.03
2022-12-17T21:11:54.859Z,4.23
2022-12-17T21:14:23.929Z,5.50
2022-12-17T21:16:53.186Z,5.97
2022-12-17T21:19:21.696Z,6.53
2022-12-17T21:21:50.704Z,7.50
2022-12-17T21:24:19.132Z,4.80
2022-12-17T21:26:49.182Z,5.23
2022-12-17T21:29:18.510Z,6.43
2022-12-17T21:31:49.385Z,5.87
2022-12-17T21:34:22.428Z,4.20
2022-12-17T21:36:51.679Z,5.37
2022-12-17T21:39:20.908Z,6.17
2022-12-17T21:42:05.187Z,4.00
2022-12-17T21:44:34.072Z,4.50
2022-12-17T21:47:02.996Z,3.97
2022-12-17T21:49:31.564Z,4.77
2022-12-17T21:52:01.244Z,6.63
2022-12-17T21:54:30.008Z,5.83
2022-12-17T21:56:59.840Z,5.30
2022-12-17T21:59:28.345Z,4.80
2022-12-17T22:01:57.573Z,3.80
2022-12-17T22:04:26.865Z,4.47
2022-12-17T22:07:00.309Z,3.90
2022-12-17T22:09:49.696Z,3.87
2022-12-17T22:12:43.568Z,4.37
2022-12-17T22:15:13.008Z,4.90
2022-12-17T22:17:43.007Z,5.03
2022-12-17T22:20:12.674Z,3.40
2022-12-17T22:22:41.143Z,4.37
2022-12-17T22:25:11.664Z,5.30
2022-12-17T22:27:42.738Z,3.63
2022-12-17T22:30:34.630Z,5.00
2022-12-17T22:33:17.890Z,3.87
2022-12-17T22:39:29.547Z,5.53
2022-12-17T22:41:04.148Z,4.67
2022-12-17T22:44:42.956Z,4.30
2022-12-17T22:44:51.530Z,4.63
2022-12-17T22:47:22.526Z,6.07
2022-12-17T22:49:51.026Z,9.07
2022-12-17T22:52:20.545Z,6.57
2022-12-17T22:54:49.186Z,4.60
2022-12-17T22:57:37.710Z,4.07
2022-12-17T23:00:18.337Z,4.73
2022-12-17T23:02:46.790Z,6.43
2022-12-17T23:05:16.231Z,4.37
2022-12-17T23:07:44.583Z,4.03
2022-12-17T23:10:13.002Z,5.33
2022-12-17T23:12:54.094Z,4.80
2022-12-17T23:15:28.909Z,4.23
2022-12-17T23:18:00.506Z,5.50
2022-12-17T23:20:32.911Z,2.73
2022-12-17T23:23:01.916Z,4.13
2022-12-17T23:25:31.115Z,3.90
2022-12-17T23:27:59.539Z,4.73
2022-12-17T23:30:29.356Z,3.70
2022-12-17T23:32:57.771Z,4.13
2022-12-17T23:35:26.135Z,4.77
2022-12-17T23:37:54.487Z,5.60
2022-12-17T23:40:23.396Z,4.30
2022-12-17T23:42:51.748Z,4.33
2022-12-17T23:45:20.299Z,5.70
2022-12-17T23:47:50.043Z,4.93
2022-12-17T23:50:18.638Z,3.43
2022-12-17T23:52:47.018Z,4.80
2022-12-17T23:55:15.425Z,4.03
2022-12-17T23:57:43.840Z,3.87
